Time;durP1;ratioP1;P1;durP2;ratioP2;P2;SDS_P1;SDS_P2;PMS_P1;PMS_P2;Temp;Humidity;BMP_temperature;BMP_pressure;BME280_temperature;BME280_humidity;BME280_pressure;Samples;Min_cycle;Max_cycle;Signal;HPM_P1;HPM_P2
2021/05/07 00:01:55;;;;;;;7.60;6.27;;;9.90;95.20;;;;;;5031146;28;20463;-46
2021/05/07 00:04:22;;;;;;;8.27;7.00;;;10.10;94.90;;;;;;5030816;28;20443;-46
2021/05/07 00:06:49;;;;;;;8.33;6.70;;;9.70;95.80;;;;;;5031225;28;20432;-47
2021/05/07 00:09:16;;;;;;;8.03;6.10;;;9.90;95.60;;;;;;5031074;28;20443;-46
2021/05/07 00:11:43;;;;;;;9.03;6.77;;;10.20;95.30;;;;;;5031291;28;20463;-47
2021/05/07 00:14:09;;;;;;;8.00;6.53;;;10.20;95.40;;;;;;5031837;28;20574;-46
2021/05/07 00:16:35;;;;;;;6.83;6.17;;;10.00;95.20;;;;;;5035096;28;20522;-46
2021/05/07 00:19:05;;;;;;;7.80;6.70;;;10.00;95.40;;;;;;5033549;28;20449;-45
2021/05/07 00:21:32;;;;;;;6.87;6.10;;;10.40;95.50;;;;;;5034905;28;20431;-46
2021/05/07 00:23:58;;;;;;;8.63;5.80;;;10.20;95.70;;;;;;5034085;28;20562;-46
2021/05/07 00:26:25;;;;;;;7.50;6.17;;;9.80;96.00;;;;;;5034611;28;20474;-46
2021/05/07 00:28:51;;;;;;;11.00;6.73;;;10.10;95.60;;;;;;5033421;28;20498;-46
2021/05/07 00:31:17;;;;;;;9.50;6.80;;;10.50;96.00;;;;;;5034753;28;20432;-46
2021/05/07 00:33:44;;;;;;;7.17;6.33;;;10.20;96.00;;;;;;5034082;28;20580;-46
2021/05/07 00:36:10;;;;;;;7.43;6.73;;;9.90;96.30;;;;;;5034485;28;20522;-47
2021/05/07 00:38:36;;;;;;;7.87;6.70;;;10.50;96.20;;;;;;5034808;28;20804;-46
2021/05/07 00:41:02;;;;;;;7.27;6.57;;;9.60;96.50;;;;;;5034739;28;20951;-46
2021/05/07 00:43:30;;;;;;;7.37;6.00;;;10.00;96.20;;;;;;5034215;28;20874;-46
2021/05/07 00:45:56;;;;;;;7.53;6.67;;;10.40;96.50;;;;;;5033076;28;20506;-46
2021/05/07 00:48:23;;;;;;;7.10;6.27;;;9.70;96.80;;;;;;5034370;28;20931;-46
2021/05/07 00:50:50;;;;;;;6.53;5.93;;;10.50;96.50;;;;;;5032951;28;20448;-46
2021/05/07 00:53:19;;;;;;;6.47;5.80;;;10.30;96.30;;;;;;5033706;28;20517;-47
2021/05/07 00:55:47;;;;;;;8.27;7.47;;;10.10;96.00;;;;;;5033037;28;20855;-46
2021/05/07 00:58:15;;;;;;;7.63;6.20;;;10.20;96.10;;;;;;5032772;28;20460;-46
2021/05/07 01:00:43;;;;;;;7.43;6.63;;;10.10;96.30;;;;;;5033952;28;20431;-46
2021/05/07 01:03:10;;;;;;;8.03;6.97;;;10.20;96.40;;;;;;5032413;28;20499;-45
2021/05/07 01:05:36;;;;;;;9.20;7.43;;;10.60;96.70;;;;;;5032529;28;20443;-45
2021/05/07 01:08:06;;;;;;;10.00;7.57;;;10.10;96.70;;;;;;5033025;28;20788;-46
2021/05/07 01:10:35;;;;;;;7.53;6.73;;;10.10;96.90;;;;;;5032646;28;20517;-45
2021/05/07 01:13:02;;;;;;;7.40;6.60;;;10.50;97.20;;;;;;5032278;28;20492;-45
2021/05/07 01:15:28;;;;;;;9.70;7.10;;;10.30;97.20;;;;;;5032381;28;20447;-46
2021/05/07 01:17:57;;;;;;;8.63;7.47;;;9.50;97.40;;;;;;5032554;28;20457;-46
2021/05/07 01:20:25;;;;;;;10.00;7.27;;;9.50;97.60;;;;;;5032366;28;20952;-47
2021/05/07 01:22:54;;;;;;;8.57;7.30;;;10.30;97.40;;;;;;5031845;28;20475;-46
2021/05/07 01:25:22;;;;;;;9.30;7.50;;;10.00;97.30;;;;;;5032177;28;20447;-46
2021/05/07 01:27:51;;;;;;;9.60;8.40;;;10.10;97.40;;;;;;5033390;28;20940;-46
2021/05/07 01:30:20;;;;;;;8.87;8.00;;;10.00;97.30;;;;;;5034528;28;20435;-45
2021/05/07 01:32:48;;;;;;;8.90;7.40;;;10.00;97.30;;;;;;5033330;28;20491;-46
2021/05/07 01:35:18;;;;;;;10.07;8.40;;;10.20;97.40;;;;;;5033940;28;20435;-46
2021/05/07 01:37:46;;;;;;;8.63;7.53;;;10.10;97.30;;;;;;5031899;28;20533;-46
2021/05/07 01:40:16;;;;;;;10.80;7.77;;;10.50;97.50;;;;;;5033310;28;20435;-45
2021/05/07 01:42:42;;;;;;;9.10;7.90;;;10.10;97.50;;;;;;5031480;28;20444;-46
2021/05/07 01:45:10;;;;;;;8.63;7.70;;;9.80;97.80;;;;;;5031727;28;20505;-45
2021/05/07 01:47:36;;;;;;;8.03;7.30;;;9.80;98.00;;;;;;5032981;28;20679;-46
2021/05/07 01:50:05;;;;;;;9.20;7.70;;;10.20;97.80;;;;;;5032056;28;20855;-47
2021/05/07 01:52:31;;;;;;;10.80;8.33;;;9.90;98.20;;;;;;5032649;28;20479;-46
2021/05/07 01:54:58;;;;;;;11.17;7.53;;;9.90;98.40;;;;;;5033020;28;20435;-45
2021/05/07 01:57:29;;;;;;;9.17;7.60;;;10.30;98.10;;;;;;5031971;28;20582;-46
2021/05/07 01:59:55;;;;;;;9.43;7.70;;;9.90;98.50;;;;;;5031506;28;20452;-46
2021/05/07 02:02:21;;;;;;;8.50;7.67;;;9.80;98.50;;;;;;5032564;28;20427;-46
2021/05/07 02:04:48;;;;;;;8.53;7.57;;;9.70;98.50;;;;;;5031530;28;20525;-45
2021/05/07 02:07:14;;;;;;;8.80;7.23;;;9.90;98.70;;;;;;5033029;28;20793;-46
2021/05/07 02:09:41;;;;;;;8.50;7.63;;;9.60;98.40;;;;;;5031350;28;20952;-46
2021/05/07 02:12:09;;;;;;;8.27;7.47;;;10.00;98.30;;;;;;5032703;28;20502;-46
2021/05/07 02:14:36;;;;;;;11.30;9.00;;;9.70;98.50;;;;;;5031183;28;20529;-46
2021/05/07 02:17:03;;;;;;;8.40;7.40;;;10.00;98.50;;;;;;5032752;28;20436;-46
2021/05/07 02:19:29;;;;;;;8.60;7.80;;;9.80;98.90;;;;;;5031336;28;20466;-46
2021/05/07 02:21:55;;;;;;;10.43;7.50;;;9.80;99.20;;;;;;5031263;28;20823;-45
2021/05/07 02:24:22;;;;;;;7.97;7.13;;;9.90;99.30;;;;;;5030711;28;20472;-46
2021/05/07 02:26:48;;;;;;;9.00;8.10;;;9.60;99.20;;;;;;5032230;28;20439;-45
2021/05/07 02:29:16;;;;;;;25.47;10.17;;;9.70;99.30;;;;;;5032583;28;20435;-45
2021/05/07 02:31:43;;;;;;;8.53;7.47;;;9.90;99.30;;;;;;5031417;28;20456;-46
2021/05/07 02:34:10;;;;;;;8.23;6.73;;;10.10;98.80;;;;;;5032680;28;20491;-46
2021/05/07 02:36:37;;;;;;;8.03;7.10;;;9.70;99.00;;;;;;5032945;28;20515;-46
2021/05/07 02:39:04;;;;;;;8.87;7.97;;;9.80;99.30;;;;;;5034036;28;20439;-45
2021/05/07 02:41:31;;;;;;;11.77;7.70;;;9.80;99.40;;;;;;5031398;28;20451;-46
2021/05/07 02:43:58;;;;;;;8.43;7.53;;;9.80;99.50;;;;;;5031824;28;20456;-46
2021/05/07 02:46:32;;;;;;;9.73;7.27;;;10.20;99.10;;;;;;5031074;28;20526;-46
2021/05/07 02:48:59;;;;;;;8.30;7.50;;;9.70;99.50;;;;;;5032464;28;20431;-46
2021/05/07 02:51:25;;;;;;;8.50;6.97;;;9.40;99.40;;;;;;5031248;28;20444;-45
2021/05/07 02:53:54;;;;;;;8.07;7.20;;;9.50;99.50;;;;;;5029830;28;20482;-46
2021/05/07 02:56:20;;;;;;;10.50;6.67;;;9.60;99.60;;;;;;5030900;28;20787;-45
2021/05/07 02:58:49;;;;;;;10.20;7.70;;;9.40;99.50;;;;;;5031643;28;20446;-45
2021/05/07 03:01:16;;;;;;;9.30;7.40;;;9.70;99.80;;;;;;5030671;28;20435;-46
2021/05/07 03:03:43;;;;;;;10.03;7.93;;;9.20;99.60;;;;;;5031537;28;20456;-46
2021/05/07 03:06:10;;;;;;;7.50;6.47;;;9.40;99.60;;;;;;5030818;28;20442;-45
2021/05/07 03:08:37;;;;;;;10.23;7.60;;;9.30;99.60;;;;;;5032420;28;20460;-46
2021/05/07 03:11:04;;;;;;;8.33;7.53;;;9.30;99.70;;;;;;5032114;28;20428;-46
2021/05/07 03:13:30;;;;;;;10.17;7.63;;;9.50;99.90;;;;;;5031118;28;20487;-46
2021/05/07 03:15:56;;;;;;;11.93;10.33;;;9.30;99.80;;;;;;5031751;28;20467;-46
2021/05/07 03:18:23;;;;;;;10.40;8.43;;;9.30;99.70;;;;;;5031627;28;20467;-45
2021/05/07 03:20:52;;;;;;;9.80;8.80;;;9.30;99.90;;;;;;5030576;28;20454;-45
2021/05/07 03:23:19;;;;;;;10.40;8.60;;;9.50;99.90;;;;;;5031372;28;20463;-45
2021/05/07 03:25:46;;;;;;;9.43;7.67;;;9.30;99.90;;;;;;5032147;28;20522;-46
2021/05/07 03:28:13;;;;;;;8.57;7.50;;;8.80;99.70;;;;;;5031993;28;20485;-46
2021/05/07 03:30:40;;;;;;;10.20;8.73;;;9.20;99.90;;;;;;5031741;28;20427;-45
2021/05/07 03:33:07;;;;;;;15.20;8.80;;;9.40;99.90;;;;;;5030869;28;20561;-46
2021/05/07 03:35:34;;;;;;;11.00;8.83;;;9.00;99.80;;;;;;5030151;28;20443;-46
2021/05/07 03:38:03;;;;;;;8.50;7.17;;;9.40;99.90;;;;;;5031679;28;20442;-46
2021/05/07 03:40:29;;;;;;;10.70;7.40;;;9.40;99.90;;;;;;5031419;28;20807;-46
2021/05/07 03:42:55;;;;;;;10.90;8.90;;;9.20;99.90;;;;;;5031081;28;20456;-46
2021/05/07 03:45:21;;;;;;;9.90;8.93;;;9.00;99.90;;;;;;5031231;28;20955;-46
2021/05/07 03:47:48;;;;;;;12.40;8.97;;;9.40;99.90;;;;;;5030512;28;20478;-46
2021/05/07 03:50:14;;;;;;;10.53;9.47;;;9.20;99.90;;;;;;5034020;28;20501;-46
2021/05/07 03:52:42;;;;;;;16.50;12.20;;;9.60;99.90;;;;;;5034682;28;20481;-46
2021/05/07 03:55:11;;;;;;;14.43;12.83;;;9.20;99.60;;;;;;5035214;28;20438;-46
2021/05/07 03:57:38;;;;;;;18.57;16.10;;;9.40;99.30;;;;;;5035105;28;20443;-46
2021/05/07 04:00:06;;;;;;;19.20;17.20;;;9.10;98.90;;;;;;5035147;28;20431;-46
2021/05/07 04:02:39;;;;;;;22.67;18.60;;;9.10;98.90;;;;;;5034544;28;20430;-45
2021/05/07 04:05:07;;;;;;;21.87;19.50;;;9.30;99.00;;;;;;5033623;28;20439;-46
2021/05/07 04:07:33;;;;;;;21.37;18.93;;;9.30;98.90;;;;;;5035050;28;20443;-46
2021/05/07 04:10:02;;;;;;;19.50;17.30;;;9.10;98.70;;;;;;5034818;28;20980;-46
2021/05/07 04:15:13;;;;;;;18.43;15.30;;;9.20;98.50;;;;;;5034335;28;20439;-45
2021/05/07 04:17:39;;;;;;;17.03;15.23;;;9.60;98.50;;;;;;5034606;28;20430;-46
2021/05/07 04:20:07;;;;;;;16.50;14.90;;;9.50;98.30;;;;;;5034570;28;20461;-47
2021/05/07 04:22:34;;;;;;;18.73;16.90;;;9.20;97.90;;;;;;5034168;28;20436;-45
2021/05/07 04:25:00;;;;;;;24.70;19.67;;;9.40;97.50;;;;;;5034701;28;20470;-46
2021/05/07 04:27:26;;;;;;;25.77;23.10;;;9.30;97.00;;;;;;5034422;28;20467;-46
2021/05/07 04:29:53;;;;;;;30.50;25.50;;;9.30;96.40;;;;;;5034578;28;20430;-46
2021/05/07 04:32:20;;;;;;;34.33;28.97;;;9.10;96.00;;;;;;5033992;28;20424;-47
2021/05/07 04:34:46;;;;;;;30.70;24.53;;;9.70;95.60;;;;;;5034500;28;20537;-46
2021/05/07 04:37:12;;;;;;;20.93;18.30;;;9.40;95.10;;;;;;5034389;28;20430;-46
2021/05/07 04:39:38;;;;;;;22.07;15.40;;;9.30;95.10;;;;;;5034748;28;20451;-47
2021/05/07 04:42:06;;;;;;;18.47;14.30;;;9.60;95.00;;;;;;5034225;28;20454;-45
2021/05/07 04:44:32;;;;;;;13.07;11.67;;;9.60;95.10;;;;;;5033907;28;20531;-46
2021/05/07 04:46:59;;;;;;;15.13;10.87;;;9.30;95.00;;;;;;5034103;28;20515;-46
2021/05/07 04:49:26;;;;;;;12.53;9.77;;;9.60;95.10;;;;;;5033888;28;20439;-46
2021/05/07 04:51:52;;;;;;;13.43;10.07;;;9.50;94.70;;;;;;5033815;28;20810;-46
2021/05/07 04:54:18;;;;;;;14.90;8.00;;;9.50;94.60;;;;;;5033458;28;20553;-46
2021/05/07 04:56:44;;;;;;;11.30;7.00;;;9.50;94.30;;;;;;5033826;28;20439;-46
2021/05/07 04:59:10;;;;;;;12.30;7.30;;;9.40;94.40;;;;;;5033907;28;20472;-46
2021/05/07 05:01:37;;;;;;;12.97;7.70;;;9.60;94.40;;;;;;5033545;28;20423;-46
2021/05/07 05:04:04;;;;;;;12.60;8.33;;;9.60;94.40;;;;;;5033666;28;20521;-46
2021/05/07 05:06:31;;;;;;;12.07;10.10;;;9.40;94.50;;;;;;5033709;28;20435;-46
2021/05/07 05:08:57;;;;;;;13.27;9.87;;;9.00;94.20;;;;;;5033819;28;20444;-46
2021/05/07 05:11:23;;;;;;;9.73;8.77;;;9.40;94.40;;;;;;5033511;28;20434;-45
2021/05/07 05:13:49;;;;;;;12.83;7.83;;;9.30;94.50;;;;;;5033453;28;20507;-45
2021/05/07 05:16:15;;;;;;;13.20;8.17;;;9.00;94.10;;;;;;5033399;28;20447;-45
2021/05/07 05:18:41;;;;;;;10.67;8.63;;;9.30;94.60;;;;;;5033881;28;20432;-45
2021/05/07 05:21:09;;;;;;;10.43;6.80;;;9.50;94.90;;;;;;5034199;28;20531;-46
2021/05/07 05:23:38;;;;;;;5.37;4.87;;;9.00;94.40;;;;;;5034933;28;20467;-45
2021/05/07 05:26:05;;;;;;;9.30;6.20;;;9.00;94.20;;;;;;5035549;28;20974;-46
2021/05/07 05:28:35;;;;;;;9.27;6.30;;;9.10;94.40;;;;;;5034520;28;20486;-46
2021/05/07 05:31:01;;;;;;;6.20;4.67;;;9.20;94.60;;;;;;5034328;28;20515;-46
2021/05/07 05:33:28;;;;;;;7.47;5.67;;;9.10;94.60;;;;;;5033479;28;20548;-47
2021/05/07 05:35:54;;;;;;;13.33;4.97;;;9.00;94.70;;;;;;5033459;28;20439;-47
2021/05/07 05:38:21;;;;;;;6.73;4.90;;;9.10;95.30;;;;;;5033361;28;20576;-47
2021/05/07 05:40:48;;;;;;;7.57;4.90;;;8.90;95.30;;;;;;5032244;28;20532;-47
2021/05/07 05:43:14;;;;;;;8.10;4.60;;;8.90;95.20;;;;;;5032869;28;20456;-46
2021/05/07 05:45:41;;;;;;;5.70;4.20;;;9.00;95.70;;;;;;5033184;28;20438;-45
2021/05/07 05:48:09;;;;;;;4.83;3.40;;;8.90;95.70;;;;;;5033076;28;20463;-47
2021/05/07 05:50:35;;;;;;;4.73;3.80;;;9.00;95.80;;;;;;5032958;28;20435;-46
2021/05/07 05:53:02;;;;;;;5.00;3.70;;;8.80;95.80;;;;;;5031118;28;20475;-46
2021/05/07 05:55:29;;;;;;;5.20;3.83;;;8.80;96.10;;;;;;5032909;28;20431;-46
2021/05/07 05:57:55;;;;;;;6.63;3.97;;;9.10;96.50;;;;;;5033505;28;20526;-45
2021/05/07 06:00:22;;;;;;;8.77;4.17;;;8.70;96.90;;;;;;5033543;28;20443;-45
2021/05/07 06:02:49;;;;;;;5.47;3.90;;;8.80;97.00;;;;;;5033003;28;20451;-46
2021/05/07 06:05:16;;;;;;;7.50;4.40;;;8.70;96.80;;;;;;5032601;28;20432;-46
2021/05/07 06:07:43;;;;;;;7.63;4.10;;;8.60;95.70;;;;;;5032916;28;20447;-46
2021/05/07 06:10:12;;;;;;;6.77;3.60;;;8.70;96.10;;;;;;5033085;28;20505;-46
2021/05/07 06:12:40;;;;;;;4.63;3.50;;;8.60;95.70;;;;;;5032200;28;20531;-45
2021/05/07 06:15:07;;;;;;;9.63;4.53;;;8.40;95.10;;;;;;5032951;28;20443;-46
2021/05/07 06:17:34;;;;;;;6.13;3.67;;;8.50;95.40;;;;;;5033091;28;20628;-46
2021/05/07 06:20:02;;;;;;;10.23;4.13;;;8.90;96.10;;;;;;5032406;28;20436;-46
2021/05/07 06:22:29;;;;;;;8.00;3.77;;;8.90;95.90;;;;;;5032635;28;20439;-46
2021/05/07 06:24:55;;;;;;;7.37;2.90;;;8.70;96.00;;;;;;5034385;28;20439;-46
2021/05/07 06:27:22;;;;;;;5.37;3.20;;;8.50;96.10;;;;;;5035287;28;20525;-45
2021/05/07 06:29:49;;;;;;;4.13;2.77;;;8.60;96.40;;;;;;5034570;28;20434;-46
2021/05/07 06:32:15;;;;;;;5.00;2.50;;;8.50;96.60;;;;;;5033504;28;20861;-46
2021/05/07 06:34:41;;;;;;;8.37;3.20;;;8.40;96.70;;;;;;5032142;28;20901;-45
2021/05/07 06:37:07;;;;;;;4.80;3.00;;;8.40;97.00;;;;;;5032341;28;20467;-44
2021/05/07 06:39:34;;;;;;;5.53;3.10;;;8.70;97.20;;;;;;5031973;28;20868;-45
2021/05/07 06:42:01;;;;;;;7.23;3.10;;;8.70;97.20;;;;;;5032314;28;20509;-45
2021/05/07 06:44:29;;;;;;;2.80;2.00;;;8.30;97.50;;;;;;5032104;28;20490;-45
2021/05/07 06:46:56;;;;;;;3.60;2.80;;;8.50;98.20;;;;;;5031475;28;20455;-46
2021/05/07 06:49:23;;;;;;;3.77;3.00;;;8.30;98.60;;;;;;5032118;28;20447;-46
2021/05/07 06:51:50;;;;;;;9.73;4.83;;;8.30;99.10;;;;;;5032222;28;20491;-48
2021/05/07 06:54:16;;;;;;;5.83;3.27;;;8.50;99.50;;;;;;5031378;28;20494;-47
2021/05/07 06:56:43;;;;;;;4.00;3.20;;;8.20;99.70;;;;;;5031976;28;20434;-46
2021/05/07 06:59:09;;;;;;;5.07;3.00;;;8.30;99.90;;;;;;5032555;28;20427;-46
2021/05/07 07:01:36;;;;;;;3.60;2.50;;;8.40;99.90;;;;;;5031716;28;20442;-46
2021/05/07 07:04:04;;;;;;;4.67;2.80;;;8.60;99.90;;;;;;5031267;28;20454;-46
2021/05/07 07:06:30;;;;;;;5.90;3.00;;;8.30;99.90;;;;;;5031796;28;20532;-47
2021/05/07 07:08:57;;;;;;;4.00;2.67;;;8.40;99.90;;;;;;5031689;28;20547;-46
2021/05/07 07:11:23;;;;;;;5.30;2.60;;;8.20;99.90;;;;;;5031629;28;20526;-46
2021/05/07 07:13:49;;;;;;;4.90;2.57;;;8.20;99.90;;;;;;5031237;28;20849;-46
2021/05/07 07:16:16;;;;;;;6.63;3.30;;;8.30;99.90;;;;;;5031531;28;20813;-46
2021/05/07 07:18:42;;;;;;;4.17;2.43;;;8.50;99.90;;;;;;5032189;28;20442;-46
2021/05/07 07:21:09;;;;;;;10.60;3.30;;;9.20;99.90;;;;;;5031793;28;20464;-45
2021/05/07 07:23:36;;;;;;;3.23;2.20;;;8.60;99.90;;;;;;5030741;28;20478;-45
2021/05/07 07:26:04;;;;;;;4.70;2.57;;;8.30;99.90;;;;;;5031816;28;20530;-46
2021/05/07 07:28:31;;;;;;;5.00;2.97;;;8.20;99.90;;;;;;5031873;28;20538;-46
2021/05/07 07:30:57;;;;;;;4.33;2.53;;;8.30;99.90;;;;;;5031524;28;20478;-45
2021/05/07 07:33:24;;;;;;;9.30;3.60;;;8.30;99.90;;;;;;5030986;28;20489;-45
2021/05/07 07:35:50;;;;;;;5.77;2.70;;;8.30;99.90;;;;;;5031737;28;20443;-46
2021/05/07 07:38:18;;;;;;;5.03;2.50;;;8.20;99.90;;;;;;5030706;28;20450;-46
2021/05/07 07:40:44;;;;;;;7.10;3.23;;;7.60;99.90;;;;;;5030942;28;20550;-47
2021/05/07 07:43:11;;;;;;;3.93;2.50;;;7.70;99.90;;;;;;5031220;28;20447;-47
2021/05/07 07:45:37;;;;;;;4.50;2.90;;;8.30;99.90;;;;;;5031604;28;20598;-45
2021/05/07 07:48:05;;;;;;;7.40;3.30;;;7.90;99.90;;;;;;5031220;28;20446;-47
2021/05/07 07:50:31;;;;;;;7.17;3.80;;;8.40;99.90;;;;;;5031712;28;20432;-46
2021/05/07 07:52:58;;;;;;;5.00;3.40;;;8.20;99.90;;;;;;5030979;28;20459;-46
2021/05/07 07:55:25;;;;;;;7.37;3.63;;;7.90;99.90;;;;;;5032006;28;20446;-47
2021/05/07 07:57:52;;;;;;;7.27;3.30;;;8.00;99.90;;;;;;5031092;28;20487;-47
2021/05/07 08:00:19;;;;;;;6.03;3.90;;;8.20;99.90;;;;;;5031534;28;20440;-46
2021/05/07 08:02:46;;;;;;;4.97;3.60;;;8.20;99.90;;;;;;5030971;28;20446;-47
2021/05/07 08:05:13;;;;;;;7.30;4.37;;;8.00;99.90;;;;;;5030876;28;20445;-47
2021/05/07 08:07:40;;;;;;;10.30;3.80;;;8.00;99.90;;;;;;5031534;28;20966;-46
2021/05/07 08:10:08;;;;;;;7.87;3.90;;;7.90;99.90;;;;;;5031734;28;20894;-47
2021/05/07 08:12:35;;;;;;;6.40;3.97;;;7.70;99.90;;;;;;5031628;28;20491;-46
2021/05/07 08:15:03;;;;;;;5.70;3.43;;;7.40;99.90;;;;;;5032116;28;20493;-46
2021/05/07 08:17:29;;;;;;;6.03;4.30;;;7.30;99.90;;;;;;5031716;28;20454;-48
2021/05/07 08:19:56;;;;;;;7.40;3.50;;;6.90;99.90;;;;;;5030895;28;20488;-46
2021/05/07 08:22:22;;;;;;;5.47;3.10;;;7.50;99.90;;;;;;5030833;28;20435;-47
2021/05/07 08:24:49;;;;;;;10.33;4.27;;;7.60;99.90;;;;;;5031189;28;20994;-46
2021/05/07 08:27:16;;;;;;;8.63;4.07;;;7.40;99.90;;;;;;5031611;28;20438;-45
2021/05/07 08:29:45;;;;;;;4.00;3.03;;;7.20;99.90;;;;;;5031469;28;20433;-45
2021/05/07 08:32:14;;;;;;;8.10;3.57;;;7.40;99.90;;;;;;5031407;28;20557;-45
2021/05/07 08:34:44;;;;;;;9.60;3.40;;;7.40;99.90;;;;;;5031202;28;20558;-45
2021/05/07 08:37:11;;;;;;;7.60;3.40;;;7.10;99.90;;;;;;5033917;28;20922;-45
2021/05/07 08:39:38;;;;;;;6.23;3.27;;;7.50;99.90;;;;;;5033027;28;20452;-46
2021/05/07 08:42:06;;;;;;;5.97;2.87;;;7.20;99.90;;;;;;5034546;28;20477;-46
2021/05/07 08:44:33;;;;;;;4.63;2.60;;;7.20;99.90;;;;;;5034321;28;20537;-46
2021/05/07 08:47:01;;;;;;;6.27;2.70;;;7.30;99.90;;;;;;5034757;28;20515;-45
2021/05/07 08:49:30;;;;;;;5.03;2.70;;;7.00;99.90;;;;;;5033463;28;20457;-46
2021/05/07 08:51:56;;;;;;;4.77;3.13;;;7.00;99.90;;;;;;5034449;28;20481;-46
2021/05/07 08:54:25;;;;;;;7.07;4.33;;;6.60;99.90;;;;;;5033528;28;20476;-46
2021/05/07 08:56:52;;;;;;;5.27;4.43;;;6.90;99.90;;;;;;5034345;28;20451;-46
2021/05/07 08:59:18;;;;;;;5.83;4.07;;;6.60;99.90;;;;;;5033102;28;20471;-45
2021/05/07 09:01:46;;;;;;;4.80;3.63;;;6.40;99.90;;;;;;5033923;28;20756;-47
2021/05/07 09:04:15;;;;;;;4.90;3.37;;;6.50;99.90;;;;;;5033718;28;20760;-46
2021/05/07 09:06:49;;;;;;;7.80;3.70;;;6.60;99.90;;;;;;5033765;28;20841;-46
2021/05/07 09:09:22;;;;;;;6.20;3.77;;;6.20;99.90;;;;;;5034222;28;20819;-45
2021/05/07 09:11:50;;;;;;;4.00;2.77;;;6.20;99.90;;;;;;5034193;28;20747;-46
2021/05/07 09:14:17;;;;;;;7.50;3.47;;;6.30;99.90;;;;;;5034985;28;21027;-46
2021/05/07 09:16:54;;;;;;;3.63;2.43;;;6.20;99.90;;;;;;5033697;28;20435;-46
2021/05/07 09:19:23;;;;;;;6.17;2.60;;;6.00;99.90;;;;;;5033430;28;20552;-46
2021/05/07 09:21:50;;;;;;;4.97;2.80;;;5.90;99.90;;;;;;5033247;28;20492;-46
2021/05/07 09:24:18;;;;;;;3.77;2.77;;;6.00;99.90;;;;;;5032950;28;20481;-47
2021/05/07 09:26:46;;;;;;;3.80;3.40;;;6.00;99.90;;;;;;5033508;28;20468;-47
2021/05/07 09:29:19;;;;;;;4.87;2.73;;;5.80;99.90;;;;;;5031947;28;20491;-46
2021/05/07 09:31:47;;;;;;;4.93;4.00;;;5.80;99.90;;;;;;5033123;28;20550;-47
2021/05/07 09:34:15;;;;;;;7.30;3.47;;;6.00;99.90;;;;;;5031452;28;20475;-47
2021/05/07 09:36:42;;;;;;;4.80;2.90;;;5.70;99.90;;;;;;5033475;28;20436;-46
2021/05/07 09:39:14;;;;;;;5.27;3.07;;;5.90;99.90;;;;;;5032445;28;20204;-46
2021/05/07 09:41:42;;;;;;;4.83;3.10;;;6.00;99.90;;;;;;5033598;28;20810;-47
2021/05/07 09:44:23;;;;;;;5.90;3.83;;;5.90;99.90;;;;;;5032515;28;20459;-45
2021/05/07 09:46:51;;;;;;;3.47;3.10;;;5.90;99.90;;;;;;5031477;28;20455;-48
2021/05/07 09:49:25;;;;;;;5.23;3.33;;;5.90;99.90;;;;;;5033249;28;20435;-46
2021/05/07 09:51:54;;;;;;;6.93;4.17;;;6.00;99.90;;;;;;5033200;28;20518;-45
2021/05/07 09:54:21;;;;;;;5.43;3.43;;;6.30;99.90;;;;;;5032871;28;20484;-46
2021/05/07 09:56:48;;;;;;;8.23;4.20;;;6.10;99.90;;;;;;5033184;28;20438;-46
2021/05/07 09:59:15;;;;;;;5.77;4.00;;;6.40;99.90;;;;;;5032763;28;20534;-46
2021/05/07 10:01:44;;;;;;;4.90;3.92;;;6.40;99.90;;;;;;5033040;28;20478;-45
2021/05/07 10:04:11;;;;;;;3.70;3.23;;;6.60;99.90;;;;;;5032342;28;20217;-46
2021/05/07 10:06:38;;;;;;;3.03;2.73;;;7.00;99.90;;;;;;5032857;28;20441;-46
2021/05/07 10:09:06;;;;;;;3.90;3.00;;;6.60;99.90;;;;;;5033022;28;20447;-46
2021/05/07 10:11:38;;;;;;;4.33;2.93;;;6.80;99.90;;;;;;5032954;28;20588;-47
2021/05/07 10:14:08;;;;;;;4.20;3.20;;;7.40;99.90;;;;;;5034016;28;20831;-45
2021/05/07 10:16:35;;;;;;;3.60;3.30;;;7.40;99.90;;;;;;5034424;28;20811;-46
2021/05/07 10:19:03;;;;;;;4.37;3.20;;;7.50;99.90;;;;;;5032958;28;20440;-46
2021/05/07 10:21:38;;;;;;;3.73;3.03;;;7.50;99.90;;;;;;5031120;28;20444;-46
2021/05/07 10:24:08;;;;;;;3.70;2.00;;;7.40;99.90;;;;;;5031764;28;20991;-46
2021/05/07 10:26:37;;;;;;;3.20;2.03;;;7.60;99.90;;;;;;5032207;28;20433;-47
2021/05/07 10:29:18;;;;;;;2.40;1.80;;;7.80;99.90;;;;;;5032163;28;20486;-46
2021/05/07 10:31:47;;;;;;;3.23;1.70;;;7.60;99.90;;;;;;5032402;28;20460;-47
2021/05/07 10:34:14;;;;;;;4.73;1.67;;;7.50;99.90;;;;;;5031527;28;20495;-47
2021/05/07 10:36:42;;;;;;;3.00;2.10;;;7.70;99.90;;;;;;5032656;28;20436;-46
2021/05/07 10:39:20;;;;;;;4.40;1.27;;;7.60;99.90;;;;;;5032333;28;20540;-46
2021/05/07 10:41:48;;;;;;;3.37;1.80;;;8.10;99.90;;;;;;5030722;28;20524;-46
2021/05/07 10:44:14;;;;;;;3.17;2.40;;;8.40;99.90;;;;;;5031705;28;20453;-46
2021/05/07 10:46:43;;;;;;;2.50;2.30;;;8.60;99.90;;;;;;5031955;28;20440;-46
2021/05/07 10:49:10;;;;;;;3.47;2.47;;;8.80;99.90;;;;;;5031247;28;20462;-46
2021/05/07 10:51:37;;;;;;;3.20;2.17;;;9.30;99.90;;;;;;5031779;28;20434;-45
2021/05/07 10:54:06;;;;;;;6.37;3.57;;;9.40;99.90;;;;;;5031150;28;20490;-46
2021/05/07 10:56:35;;;;;;;4.40;2.40;;;9.30;99.90;;;;;;5031644;28;20446;-47
2021/05/07 10:59:12;;;;;;;2.80;2.30;;;9.30;99.90;;;;;;5031115;28;20580;-48
2021/05/07 11:01:39;;;;;;;3.27;2.43;;;9.40;99.90;;;;;;5031513;28;20438;-45
2021/05/07 11:04:08;;;;;;;3.93;2.10;;;9.70;99.90;;;;;;5031053;28;20486;-46
2021/05/07 11:06:37;;;;;;;2.93;1.90;;;9.30;99.90;;;;;;5032293;28;20428;-45
2021/05/07 11:09:22;;;;;;;4.50;2.30;;;9.40;99.90;;;;;;5031778;28;20453;-46
2021/05/07 11:11:51;;;;;;;3.70;3.27;;;9.20;99.90;;;;;;5031941;28;20478;-45
2021/05/07 11:14:19;;;;;;;3.20;2.07;;;9.50;99.90;;;;;;5030993;28;20479;-45
2021/05/07 11:16:46;;;;;;;2.37;2.00;;;9.60;99.90;;;;;;5031325;28;20436;-45
2021/05/07 11:19:26;;;;;;;3.90;2.57;;;9.70;99.90;;;;;;5032283;28;20432;-45
2021/05/07 11:21:55;;;;;;;4.50;2.17;;;9.80;99.90;;;;;;5032087;28;20507;-45
2021/05/07 11:24:26;;;;;;;3.30;2.07;;;9.90;99.90;;;;;;5054050;22;20486;-51
2021/05/07 11:26:54;;;;;;;3.50;2.20;;;9.50;99.90;;;;;;5031276;28;20431;-52
2021/05/07 11:29:27;;;;;;;4.27;3.20;;;9.60;99.90;;;;;;5031259;28;20440;-50
2021/05/07 11:31:54;;;;;;;3.90;2.57;;;9.90;99.90;;;;;;5030536;28;20951;-50
2021/05/07 11:34:27;;;;;;;3.60;2.57;;;9.30;99.90;;;;;;5030706;28;20885;-50
2021/05/07 11:36:58;;;;;;;4.40;2.40;;;9.60;99.90;;;;;;5030714;28;20439;-49
2021/05/07 11:39:24;;;;;;;4.70;3.07;;;9.80;99.90;;;;;;5031704;28;20436;-50
2021/05/07 11:41:51;;;;;;;4.60;3.27;;;10.00;99.90;;;;;;5031480;28;20436;-49
2021/05/07 11:44:18;;;;;;;7.60;3.57;;;9.70;99.90;;;;;;5030848;28;20462;-51
2021/05/07 11:46:54;;;;;;;5.30;2.70;;;9.80;99.90;;;;;;5031806;28;20490;-49
2021/05/07 11:49:21;;;;;;;5.17;2.77;;;9.70;99.90;;;;;;5031548;28;20781;-51
2021/05/07 11:51:47;;;;;;;7.60;2.63;;;9.90;99.90;;;;;;5031608;28;20419;-50
2021/05/07 11:54:14;;;;;;;8.30;3.00;;;9.30;99.90;;;;;;5031269;28;20486;-49
2021/05/07 11:56:40;;;;;;;5.30;2.90;;;9.90;99.90;;;;;;5031466;28;20932;-49
2021/05/07 11:59:07;;;;;;;4.30;2.40;;;9.70;99.90;;;;;;5031429;28;20486;-53
2021/05/07 12:01:35;;;;;;;4.57;2.50;;;10.20;99.90;;;;;;5031241;28;20434;-50
2021/05/07 12:04:03;;;;;;;7.07;3.00;;;9.90;99.90;;;;;;5031324;28;20486;-50
2021/05/07 12:06:29;;;;;;;6.13;2.93;;;10.70;99.90;;;;;;5031431;28;20432;-50
2021/05/07 12:09:07;;;;;;;5.00;3.40;;;10.50;99.90;;;;;;5029594;28;20483;-49
2021/05/07 12:11:34;;;;;;;4.70;2.70;;;10.50;99.90;;;;;;5034323;28;20456;-50
2021/05/07 12:14:10;;;;;;;4.00;2.57;;;10.80;99.90;;;;;;5034038;28;20831;-50
2021/05/07 12:16:38;;;;;;;4.63;2.87;;;11.00;99.90;;;;;;5034410;28;20526;-50
2021/05/07 12:19:04;;;;;;;4.90;3.07;;;11.40;99.90;;;;;;5034590;28;20446;-49
2021/05/07 12:21:44;;;;;;;8.17;5.53;;;11.30;99.90;;;;;;5034251;28;20474;-49
2021/05/07 12:24:13;;;;;;;6.30;2.73;;;11.20;99.90;;;;;;5032752;28;20483;-48
2021/05/07 12:26:50;;;;;;;4.77;3.30;;;11.10;99.90;;;;;;5034355;28;20428;-51
2021/05/07 12:29:17;;;;;;;4.50;2.63;;;10.90;99.90;;;;;;5034333;28;20941;-49
2021/05/07 12:31:44;;;;;;;6.83;1.90;;;10.60;99.90;;;;;;5032994;28;20451;-49
2021/05/07 12:34:15;;;;;;;3.00;2.63;;;10.70;99.90;;;;;;5032542;28;20479;-49
2021/05/07 12:36:43;;;;;;;3.27;2.50;;;10.70;99.90;;;;;;5034575;28;20803;-50
2021/05/07 12:39:11;;;;;;;3.63;2.20;;;10.40;99.90;;;;;;5034520;28;20580;-50
2021/05/07 12:41:37;;;;;;;2.50;2.20;;;10.70;99.90;;;;;;5034171;28;20862;-48
2021/05/07 12:44:04;;;;;;;4.70;2.50;;;10.50;99.90;;;;;;5034114;28;20451;-50
2021/05/07 12:46:30;;;;;;;3.80;2.30;;;10.60;99.90;;;;;;5034023;28;20440;-49
2021/05/07 12:48:59;;;;;;;2.83;2.27;;;10.90;99.90;;;;;;5033650;28;20505;-50
2021/05/07 12:51:26;;;;;;;6.43;5.40;;;10.70;99.90;;;;;;5033878;28;20435;-50
2021/05/07 12:53:54;;;;;;;2.77;2.30;;;10.70;99.90;;;;;;5033458;28;20478;-50
2021/05/07 12:56:23;;;;;;;3.47;2.23;;;10.50;99.90;;;;;;5033999;28;20450;-51
2021/05/07 12:58:50;;;;;;;2.83;2.13;;;10.90;99.90;;;;;;5034928;28;20531;-49